Chiselville, Vermont
Current Conditions -  °F | °C
As of 10:54 AM on Tuesday 21 Oct 2014 (Local Time) from KDDH Reporting Station
Light Rain Light Rain  
Wind Chill: 50°   Ceiling: 4000
Heat Index: 50°   Visibility: 10mi
Dew Point: 44°   Wind: 7mph
Humidity: 80%   Direction: 90°E
Pressure: 29.93"   Gusts: NA
Location:  43.0661°N, 73.1407°W
Report Text: KDDH 211454Z AUTO 09006KT 10SM -RA BKN040 OVC050 10/07 A2993 RMK AO2 SLP136 P0001 60002 T01000067 51004
Loading
Personal Weather Stations






























Interactive Weather Map
Tropical Storm Tracking
New forecast layout! Learn more

10-Day Weather Forecast

Advertisements
Track Severe Weather on mobile